createdAt,value
2022-08-17T00:01:51.869Z,8.13
2022-08-17T00:04:23.581Z,8.57
2022-08-17T00:06:53.379Z,8.10
2022-08-17T00:09:21.594Z,7.78
2022-08-17T00:12:03.915Z,7.78
2022-08-17T00:14:38.962Z,8.07
2022-08-17T00:17:07.115Z,7.80
2022-08-17T00:19:36.654Z,8.52
2022-08-17T00:22:31.288Z,8.23
2022-08-17T00:24:55.452Z,7.47
2022-08-17T00:27:23.615Z,7.80
2022-08-17T00:29:52.223Z,7.85
2022-08-17T00:33:12.614Z,7.53
2022-08-17T00:35:12.599Z,8.05
2022-08-17T00:37:41.043Z,7.30
2022-08-17T00:40:12.986Z,8.30
2022-08-17T00:42:42.157Z,8.75
2022-08-17T00:45:13.401Z,8.07
2022-08-17T00:47:42.537Z,8.20
2022-08-17T00:50:16.459Z,8.07
2022-08-17T00:52:52.513Z,8.00
2022-08-17T00:55:22.342Z,9.35
2022-08-17T00:57:55.619Z,9.38
2022-08-17T01:00:28.275Z,8.05
2022-08-17T01:03:01.304Z,9.25
2022-08-17T01:05:33.171Z,9.40
2022-08-17T01:08:03.610Z,9.05
2022-08-17T01:10:59.690Z,8.35
2022-08-17T01:13:28.739Z,8.88
2022-08-17T01:16:00.284Z,9.25
2022-08-17T01:18:29.191Z,8.60
2022-08-17T01:21:04.280Z,8.40
2022-08-17T01:23:34.120Z,8.43
2022-08-17T01:26:03.189Z,8.07
2022-08-17T01:28:53.778Z,9.45
2022-08-17T01:31:25.301Z,8.55
2022-08-17T01:33:53.532Z,9.23
2022-08-17T01:36:22.561Z,8.30
2022-08-17T01:38:52.139Z,8.40
2022-08-17T01:41:22.689Z,9.25
2022-08-17T01:43:55.191Z,8.57
2022-08-17T01:46:27.900Z,8.68
2022-08-17T01:48:57.917Z,9.23
2022-08-17T01:51:27.091Z,9.32
2022-08-17T01:53:59.451Z,8.32
2022-08-17T01:56:30.009Z,8.23
2022-08-17T01:58:58.428Z,8.73
2022-08-17T02:01:30.388Z,8.15
2022-08-17T02:04:01.562Z,9.27
2022-08-17T02:06:31.597Z,9.73
2022-08-17T02:09:16.983Z,9.20
2022-08-17T02:11:46.126Z,7.93
2022-08-17T02:14:15.002Z,9.15
2022-08-17T02:16:43.850Z,8.32
2022-08-17T02:19:14.405Z,9.40
2022-08-17T02:21:44.793Z,9.90
2022-08-17T02:24:58.001Z,9.60
2022-08-17T02:27:07.744Z,8.85
2022-08-17T02:29:35.935Z,9.60
2022-08-17T02:32:05.068Z,9.52
2022-08-17T02:34:33.422Z,10.10
2022-08-17T02:37:01.559Z,9.57
2022-08-17T02:39:31.492Z,10.60
2022-08-17T02:42:02.403Z,10.88
2022-08-17T02:44:39.608Z,10.35
2022-08-17T02:47:09.906Z,10.02
2022-08-17T02:49:38.683Z,10.15
2022-08-17T02:52:08.921Z,10.25
2022-08-17T02:54:40.871Z,9.95
2022-08-17T02:57:11.007Z,10.48
2022-08-17T02:59:39.344Z,10.60
2022-08-17T03:02:09.217Z,9.65
2022-08-17T03:04:37.491Z,10.50
2022-08-17T03:07:06.766Z,10.73
2022-08-17T03:09:35.253Z,8.95
2022-08-17T03:12:11.176Z,9.32
2022-08-17T03:17:17.040Z,8.75
2022-08-17T03:19:45.774Z,9.52
2022-08-17T03:22:36.165Z,9.82
2022-08-17T03:25:02.190Z,9.93
2022-08-17T03:27:31.924Z,10.43
2022-08-17T03:30:00.140Z,9.98
2022-08-17T03:32:28.422Z,9.85
2022-08-17T03:35:00.913Z,9.77
2022-08-17T03:37:29.049Z,9.82
2022-08-17T03:39:57.237Z,10.23
2022-08-17T03:42:31.348Z,10.35
2022-08-17T03:45:03.305Z,9.95
2022-08-17T03:47:48.678Z,9.80
2022-08-17T03:50:35.473Z,10.73
2022-08-17T03:53:24.606Z,11.32
2022-08-17T03:56:10.028Z,9.40
2022-08-17T03:58:38.223Z,10.45
2022-08-17T04:01:08.471Z,9.68
2022-08-17T04:03:36.921Z,10.45
2022-08-17T04:06:05.717Z,10.95
2022-08-17T04:08:34.223Z,10.77
2022-08-17T04:11:02.843Z,10.13
2022-08-17T04:13:30.973Z,10.02
2022-08-17T04:16:00.038Z,10.00
2022-08-17T04:18:29.674Z,10.63
2022-08-17T04:20:57.854Z,11.13
2022-08-17T04:23:32.707Z,10.95
2022-08-17T04:26:01.069Z,10.23
2022-08-17T04:28:30.107Z,10.07
2022-08-17T04:30:58.576Z,8.43
2022-08-17T04:33:31.047Z,7.93
2022-08-17T04:36:01.615Z,7.18
2022-08-17T04:38:31.694Z,6.88
2022-08-17T04:41:18.580Z,6.88
2022-08-17T04:43:48.887Z,6.05
2022-08-17T04:46:19.353Z,6.82
2022-08-17T04:48:51.817Z,6.68
2022-08-17T04:51:22.361Z,7.03
2022-08-17T04:53:54.511Z,6.13
2022-08-17T04:56:25.988Z,6.07
2022-08-17T04:58:57.251Z,5.38
2022-08-17T05:01:29.308Z,5.95
2022-08-17T05:04:20.936Z,4.57
2022-08-17T05:06:51.757Z,4.72
2022-08-17T05:09:20.063Z,4.55
2022-08-17T05:11:48.398Z,4.10
2022-08-17T05:14:16.786Z,3.92
2022-08-17T05:16:45.885Z,4.18
2022-08-17T05:19:15.387Z,3.10
2022-08-17T05:21:43.549Z,4.15
2022-08-17T05:24:16.728Z,4.15
2022-08-17T05:27:06.014Z,3.97
2022-08-17T05:29:35.715Z,4.40
2022-08-17T05:32:37.975Z,3.85
2022-08-17T05:35:00.447Z,3.63
2022-08-17T05:37:28.892Z,3.80
2022-08-17T05:39:57.195Z,3.58
2022-08-17T05:42:25.658Z,3.60
2022-08-17T05:44:53.782Z,3.63
2022-08-17T05:47:23.179Z,3.55
2022-08-17T05:49:51.428Z,3.78
2022-08-17T05:52:34.541Z,3.65
2022-08-17T05:55:14.966Z,4.25
2022-08-17T05:58:01.020Z,3.78
2022-08-17T06:00:34.774Z,4.38
2022-08-17T06:03:23.607Z,4.18
2022-08-17T06:06:02.420Z,3.55
2022-08-17T06:08:39.659Z,4.78
2022-08-17T06:11:17.066Z,5.13
2022-08-17T06:14:14.592Z,6.18
2022-08-17T06:16:47.439Z,4.68
2022-08-17T06:19:20.038Z,4.10
2022-08-17T06:21:51.263Z,3.85
2022-08-17T06:24:28.559Z,3.38
2022-08-17T06:27:03.058Z,3.50
2022-08-17T06:29:41.220Z,3.00
2022-08-17T06:32:12.826Z,2.90
2022-08-17T06:34:43.758Z,2.60
2022-08-17T06:37:36.517Z,3.15
2022-08-17T06:40:21.290Z,2.28
2022-08-17T06:43:06.149Z,2.95
2022-08-17T06:45:40.088Z,2.80
2022-08-17T06:48:13.595Z,2.63
2022-08-17T06:50:48.056Z,2.83
2022-08-17T06:53:24.457Z,2.80
2022-08-17T06:56:01.017Z,2.60
2022-08-17T06:58:31.618Z,3.33
2022-08-17T07:01:07.016Z,2.88
2022-08-17T07:03:40.837Z,2.83
2022-08-17T07:06:15.597Z,2.40
2022-08-17T07:08:54.750Z,2.72
2022-08-17T07:11:28.454Z,2.90
2022-08-17T07:14:07.736Z,2.60
2022-08-17T07:16:42.238Z,2.95
2022-08-17T07:19:11.267Z,2.47
2022-08-17T07:21:58.339Z,2.70
2022-08-17T07:24:35.738Z,2.70
2022-08-17T07:27:12.829Z,2.97
2022-08-17T07:29:44.899Z,2.17
2022-08-17T07:32:18.629Z,2.20
2022-08-17T07:35:11.548Z,2.23
2022-08-17T07:37:41.554Z,1.90
2022-08-17T07:40:30.962Z,2.33
2022-08-17T07:43:22.051Z,2.00
2022-08-17T07:46:35.404Z,2.33
2022-08-17T07:49:25.521Z,2.42
2022-08-17T07:52:24.314Z,2.28
2022-08-17T07:54:53.789Z,2.70
2022-08-17T07:57:33.459Z,2.17
2022-08-17T08:00:19.487Z,2.47
2022-08-17T08:03:16.099Z,2.47
2022-08-17T08:05:54.523Z,2.13
2022-08-17T08:08:32.471Z,2.20
2022-08-17T08:11:07.264Z,2.25
2022-08-17T08:13:40.549Z,2.08
2022-08-17T08:16:31.247Z,2.63
2022-08-17T08:19:02.239Z,2.30
2022-08-17T08:21:41.969Z,2.17
2022-08-17T08:24:43.119Z,2.40
2022-08-17T08:27:22.326Z,2.20
2022-08-17T08:29:58.122Z,2.20
2022-08-17T08:32:48.141Z,2.22
2022-08-17T08:35:26.844Z,1.90
2022-08-17T08:38:03.629Z,1.98
2022-08-17T08:40:44.071Z,2.58
2022-08-17T08:43:23.910Z,1.70
2022-08-17T08:45:58.327Z,1.35
2022-08-17T08:51:35.947Z,1.35
2022-08-17T08:54:15.670Z,1.50
2022-08-17T08:57:19.238Z,1.58
2022-08-17T08:59:51.172Z,2.00
2022-08-17T09:02:44.922Z,1.63
2022-08-17T09:05:26.575Z,1.73
2022-08-17T09:08:11.348Z,1.73
2022-08-17T09:13:20.901Z,1.33
2022-08-17T09:15:56.081Z,1.67
2022-08-17T09:19:00.370Z,2.00
2022-08-17T09:21:22.593Z,1.85
2022-08-17T09:24:02.469Z,1.50
2022-08-17T09:26:35.845Z,1.65
2022-08-17T09:29:08.799Z,1.50
2022-08-17T09:31:49.216Z,1.58
2022-08-17T09:34:20.056Z,1.70
2022-08-17T09:36:54.161Z,1.73
2022-08-17T09:39:27.662Z,1.67
2022-08-17T09:41:59.873Z,1.70
2022-08-17T09:44:30.360Z,1.95
2022-08-17T09:47:02.285Z,1.95
2022-08-17T09:49:32.565Z,1.52
2022-08-17T09:52:04.320Z,1.95
2022-08-17T09:54:40.994Z,1.60
2022-08-17T09:57:30.016Z,1.73
2022-08-17T10:00:08.987Z,1.58
2022-08-17T10:03:06.846Z,1.90
2022-08-17T10:05:46.610Z,1.45
2022-08-17T10:08:25.639Z,1.63
2022-08-17T10:11:05.798Z,1.70
2022-08-17T10:13:53.452Z,2.10
2022-08-17T10:16:28.752Z,1.83
2022-08-17T10:19:06.191Z,1.60
2022-08-17T10:22:00.870Z,1.67
2022-08-17T10:25:20.879Z,1.60
2022-08-17T10:27:47.542Z,1.50
2022-08-17T10:30:18.793Z,1.70
2022-08-17T10:32:52.294Z,1.90
2022-08-17T10:35:34.397Z,1.60
2022-08-17T10:38:38.669Z,1.92
2022-08-17T10:41:24.159Z,2.00
2022-08-17T10:44:40.873Z,2.22
2022-08-17T10:47:08.109Z,2.53
2022-08-17T10:49:37.197Z,2.28
2022-08-17T10:52:25.070Z,2.28
2022-08-17T10:55:13.684Z,2.40
2022-08-17T10:57:45.511Z,2.40
2022-08-17T11:00:58.566Z,2.63
2022-08-17T11:03:27.689Z,2.55
2022-08-17T11:06:11.051Z,2.63
2022-08-17T11:09:21.216Z,2.30
2022-08-17T11:12:11.757Z,2.28
2022-08-17T11:15:04.835Z,2.65
2022-08-17T11:18:02.385Z,2.30
2022-08-17T11:20:54.487Z,2.50
2022-08-17T11:23:40.805Z,2.45
2022-08-17T11:26:26.218Z,2.72
2022-08-17T11:29:00.158Z,2.17
2022-08-17T11:31:38.761Z,2.30
2022-08-17T11:34:15.305Z,2.50
2022-08-17T11:37:15.537Z,2.50
2022-08-17T11:40:12.424Z,2.47
2022-08-17T11:43:00.479Z,2.72
2022-08-17T11:45:41.646Z,2.45
2022-08-17T11:48:39.543Z,2.63
2022-08-17T11:51:43.057Z,3.00
2022-08-17T11:54:34.587Z,2.42
2022-08-17T11:57:41.478Z,2.53
2022-08-17T12:00:31.582Z,2.38
2022-08-17T12:03:54.152Z,2.33
2022-08-17T12:06:54.706Z,2.28
2022-08-17T12:09:26.404Z,2.88
2022-08-17T12:12:13.869Z,2.50
2022-08-17T12:15:09.481Z,2.75
2022-08-17T12:17:41.525Z,1.90
2022-08-17T12:20:17.769Z,2.50
2022-08-17T12:22:54.933Z,2.70
2022-08-17T12:25:31.697Z,2.47
2022-08-17T12:28:06.014Z,2.90
2022-08-17T12:30:36.788Z,2.45
2022-08-17T12:33:12.056Z,2.25
2022-08-17T12:35:41.646Z,2.20
2022-08-17T12:38:32.494Z,2.75
2022-08-17T12:40:59.867Z,2.13
2022-08-17T12:43:32.945Z,2.85
2022-08-17T12:46:15.110Z,2.40
2022-08-17T12:48:55.110Z,2.40
2022-08-17T12:51:30.376Z,2.50
2022-08-17T12:53:58.599Z,2.60
2022-08-17T12:56:26.858Z,2.33
2022-08-17T12:58:56.751Z,2.47
2022-08-17T13:01:26.164Z,2.60
2022-08-17T13:04:01.002Z,2.78
2022-08-17T13:06:33.420Z,2.40
2022-08-17T13:09:11.289Z,2.47
2022-08-17T13:11:49.280Z,2.35
2022-08-17T13:14:19.068Z,2.40
2022-08-17T13:16:53.415Z,2.42
2022-08-17T13:19:29.869Z,2.50
2022-08-17T13:22:13.607Z,2.90
2022-08-17T13:24:54.587Z,2.60
2022-08-17T13:27:25.199Z,2.40
2022-08-17T13:29:55.903Z,2.85
2022-08-17T13:32:34.514Z,2.90
2022-08-17T13:35:14.172Z,3.15
2022-08-17T13:37:58.902Z,2.85
2022-08-17T13:40:32.270Z,3.20
2022-08-17T13:43:03.497Z,2.90
2022-08-17T13:45:46.106Z,2.58
2022-08-17T13:48:26.934Z,2.80
2022-08-17T13:51:18.383Z,2.45
2022-08-17T13:53:56.080Z,2.85
2022-08-17T13:56:41.732Z,2.70
2022-08-17T13:59:14.313Z,2.42
2022-08-17T14:01:51.132Z,2.50
2022-08-17T14:04:25.140Z,3.38
2022-08-17T14:06:57.942Z,2.40
2022-08-17T14:09:34.883Z,2.60
2022-08-17T14:12:07.945Z,3.08
2022-08-17T14:14:36.421Z,2.67
2022-08-17T14:17:14.893Z,2.60
2022-08-17T14:19:43.254Z,2.70
2022-08-17T14:22:18.101Z,2.72
2022-08-17T14:24:47.915Z,2.53
2022-08-17T14:27:18.394Z,2.70
2022-08-17T14:29:46.576Z,2.17
2022-08-17T14:32:20.651Z,2.63
2022-08-17T14:34:50.269Z,2.63
2022-08-17T14:37:18.792Z,2.80
2022-08-17T14:39:48.870Z,2.65
2022-08-17T14:42:17.858Z,2.67
2022-08-17T14:44:46.352Z,2.60
2022-08-17T14:47:16.018Z,2.60
2022-08-17T14:49:47.571Z,2.40
2022-08-17T14:52:18.609Z,2.17
2022-08-17T14:54:48.481Z,2.95
2022-08-17T14:57:23.634Z,2.55
2022-08-17T15:00:03.281Z,2.50
2022-08-17T15:02:31.875Z,2.50
2022-08-17T15:05:01.919Z,2.67
2022-08-17T15:07:30.995Z,2.65
2022-08-17T15:10:02.358Z,2.80
2022-08-17T15:12:34.034Z,2.40
2022-08-17T15:15:05.012Z,2.72
2022-08-17T15:17:45.149Z,2.38
2022-08-17T15:20:15.843Z,2.67
2022-08-17T15:22:45.733Z,2.90
2022-08-17T15:25:15.796Z,2.60
2022-08-17T15:27:44.262Z,2.80
2022-08-17T15:30:13.921Z,2.50
2022-08-17T15:32:51.434Z,2.50
2022-08-17T15:35:27.858Z,2.83
2022-08-17T15:37:58.647Z,2.50
2022-08-17T15:40:28.543Z,2.63
2022-08-17T15:42:57.957Z,2.45
2022-08-17T15:45:28.418Z,2.35
2022-08-17T15:47:56.653Z,2.70
2022-08-17T15:50:25.011Z,2.45
2022-08-17T15:52:58.846Z,2.50
2022-08-17T15:55:30.029Z,2.60
2022-08-17T15:57:58.765Z,2.50
2022-08-17T16:00:28.557Z,2.38
2022-08-17T16:03:46.298Z,2.58
2022-08-17T16:05:46.411Z,4.22
2022-08-17T16:08:20.014Z,3.00
2022-08-17T16:10:51.257Z,2.80
2022-08-17T16:13:20.116Z,2.95
2022-08-17T16:15:54.828Z,3.00
2022-08-17T16:18:31.078Z,2.63
2022-08-17T16:21:22.651Z,2.75
2022-08-17T16:23:53.540Z,2.53
2022-08-17T16:26:24.114Z,2.63
2022-08-17T16:28:52.771Z,3.15
2022-08-17T16:31:21.794Z,3.10
2022-08-17T16:34:16.381Z,2.95
2022-08-17T16:36:39.523Z,2.85
2022-08-17T16:39:07.772Z,2.83
2022-08-17T16:41:46.809Z,3.20
2022-08-17T16:44:17.020Z,3.00
2022-08-17T16:46:46.383Z,3.05
2022-08-17T16:49:23.228Z,3.03
2022-08-17T16:52:04.444Z,2.60
2022-08-17T16:54:32.701Z,2.40
2022-08-17T16:57:04.562Z,2.80
2022-08-17T16:59:41.961Z,3.00
2022-08-17T17:02:14.952Z,3.08
2022-08-17T17:04:49.124Z,3.25
2022-08-17T17:07:34.885Z,3.05
2022-08-17T17:10:08.620Z,3.00
2022-08-17T17:13:02.006Z,2.97
2022-08-17T17:15:35.623Z,2.80
2022-08-17T17:18:07.054Z,2.80
2022-08-17T17:20:44.058Z,2.60
2022-08-17T17:23:29.235Z,2.72
2022-08-17T17:26:04.495Z,2.85
2022-08-17T17:28:43.626Z,2.67
2022-08-17T17:31:16.003Z,2.92
2022-08-17T17:33:48.340Z,2.55
2022-08-17T17:36:26.928Z,2.80
2022-08-17T17:39:00.409Z,2.97
2022-08-17T17:41:34.423Z,2.95
2022-08-17T17:44:09.019Z,2.85
2022-08-17T17:46:40.973Z,2.88
2022-08-17T17:49:11.237Z,3.42
2022-08-17T17:52:06.485Z,2.78
2022-08-17T17:54:48.520Z,2.90
2022-08-17T17:57:24.766Z,3.53
2022-08-17T18:00:03.520Z,3.13
2022-08-17T18:02:53.023Z,2.88
2022-08-17T18:05:49.022Z,2.80
2022-08-17T18:08:32.304Z,3.17
2022-08-17T18:11:13.003Z,3.38
2022-08-17T18:13:54.796Z,3.25
2022-08-17T18:16:24.778Z,3.47
2022-08-17T18:18:53.766Z,3.33
2022-08-17T18:21:24.521Z,3.70
2022-08-17T18:23:56.066Z,3.75
2022-08-17T18:26:44.628Z,3.67
2022-08-17T18:29:31.763Z,4.13
2022-08-17T18:32:29.933Z,4.18
2022-08-17T18:35:00.599Z,3.92
2022-08-17T18:37:42.686Z,4.25
2022-08-17T18:40:33.991Z,3.80
2022-08-17T18:43:10.297Z,3.40
2022-08-17T18:45:46.840Z,4.68
2022-08-17T18:48:32.847Z,3.92
2022-08-17T18:51:21.342Z,4.00
2022-08-17T18:54:20.388Z,4.17
2022-08-17T18:56:54.885Z,3.97
2022-08-17T18:59:45.126Z,3.63
2022-08-17T19:02:39.113Z,3.85
2022-08-17T19:05:30.425Z,4.15
2022-08-17T19:08:19.893Z,4.70
2022-08-17T19:10:49.792Z,4.15
2022-08-17T19:13:23.249Z,4.28
2022-08-17T19:16:11.610Z,4.03
2022-08-17T19:18:46.623Z,4.40
2022-08-17T19:21:22.460Z,4.45
2022-08-17T19:26:54.419Z,4.13
2022-08-17T19:29:16.728Z,4.28
2022-08-17T19:31:50.667Z,4.72
2022-08-17T19:34:33.537Z,4.72
2022-08-17T19:37:08.976Z,4.80
2022-08-17T19:39:44.706Z,4.10
2022-08-17T19:42:20.635Z,4.43
2022-08-17T19:44:58.571Z,4.38
2022-08-17T19:47:56.474Z,4.35
2022-08-17T19:50:38.560Z,4.65
2022-08-17T19:53:17.682Z,5.28
2022-08-17T19:55:55.499Z,4.60
2022-08-17T19:58:37.246Z,4.75
2022-08-17T20:01:08.219Z,5.25
2022-08-17T20:03:53.119Z,5.25
2022-08-17T20:06:23.260Z,4.38
2022-08-17T20:09:00.498Z,4.88
2022-08-17T20:11:36.026Z,5.60
2022-08-17T20:14:08.497Z,5.25
2022-08-17T20:16:36.689Z,5.00
2022-08-17T20:19:09.617Z,5.80
2022-08-17T20:21:44.017Z,4.80
2022-08-17T20:24:21.837Z,6.30
2022-08-17T20:26:58.203Z,5.60
2022-08-17T20:29:40.247Z,5.78
2022-08-17T20:32:19.871Z,5.63
2022-08-17T20:34:48.834Z,5.22
2022-08-17T20:37:30.807Z,4.85
2022-08-17T20:40:25.937Z,5.63
2022-08-17T20:42:54.806Z,6.10
2022-08-17T20:46:02.933Z,5.63
2022-08-17T20:48:38.961Z,5.28
2022-08-17T20:51:26.055Z,5.68
2022-08-17T20:54:36.494Z,5.78
2022-08-17T20:57:14.076Z,5.45
2022-08-17T21:00:14.100Z,6.22
2022-08-17T21:02:44.814Z,5.82
2022-08-17T21:05:59.884Z,6.10
2022-08-17T21:08:31.777Z,5.38
2022-08-17T21:11:01.539Z,5.75
2022-08-17T21:14:05.157Z,6.25
2022-08-17T21:16:46.940Z,5.80
2022-08-17T21:19:30.935Z,5.53
2022-08-17T21:22:08.673Z,5.18
2022-08-17T21:24:48.961Z,5.32
2022-08-17T21:27:33.878Z,5.15
2022-08-17T21:30:32.596Z,4.95
2022-08-17T21:33:26.859Z,5.25
2022-08-17T21:36:11.840Z,4.55
2022-08-17T21:38:44.157Z,5.40
2022-08-17T21:41:22.265Z,5.85
2022-08-17T21:43:53.109Z,5.30
2022-08-17T21:46:28.624Z,5.18
2022-08-17T21:49:09.140Z,5.97
2022-08-17T21:51:45.894Z,5.63
2022-08-17T21:54:28.175Z,5.90
2022-08-17T21:56:56.530Z,5.47
2022-08-17T21:59:28.641Z,5.57
2022-08-17T22:01:58.703Z,5.50
2022-08-17T22:04:31.234Z,5.15
2022-08-17T22:07:01.988Z,5.13
2022-08-17T22:09:32.837Z,5.07
2022-08-17T22:12:06.082Z,5.75
2022-08-17T22:14:52.064Z,6.05
2022-08-17T22:17:24.371Z,5.45
2022-08-17T22:19:56.608Z,6.15
2022-08-17T22:22:32.575Z,5.50
2022-08-17T22:25:06.091Z,5.55
2022-08-17T22:27:49.420Z,5.30
2022-08-17T22:30:26.246Z,5.68
2022-08-17T22:32:55.512Z,5.82
2022-08-17T22:35:40.991Z,6.05
2022-08-17T22:38:30.577Z,6.57
2022-08-17T22:41:24.867Z,6.15
2022-08-17T22:43:55.122Z,5.65
2022-08-17T22:46:25.717Z,5.18
2022-08-17T22:48:57.709Z,5.65
2022-08-17T22:51:30.266Z,5.30
2022-08-17T22:54:19.822Z,5.50
2022-08-17T22:57:10.398Z,5.15
2022-08-17T22:59:45.743Z,6.32
2022-08-17T23:02:19.248Z,6.10
2022-08-17T23:04:51.390Z,6.03
2022-08-17T23:07:23.718Z,6.00
2022-08-17T23:09:54.273Z,5.18
2022-08-17T23:12:27.438Z,5.85
2022-08-17T23:15:01.659Z,5.90
2022-08-17T23:17:37.164Z,5.68
2022-08-17T23:20:08.457Z,5.70
2022-08-17T23:22:52.527Z,5.93
2022-08-17T23:25:28.222Z,5.82
2022-08-17T23:27:57.814Z,6.57
2022-08-17T23:30:28.569Z,6.57
2022-08-17T23:32:59.637Z,6.30
2022-08-17T23:35:40.335Z,6.07
2022-08-17T23:38:11.530Z,6.20
2022-08-17T23:40:40.014Z,6.00
2022-08-17T23:43:23.991Z,6.15
2022-08-17T23:45:53.991Z,6.57
2022-08-17T23:48:28.611Z,6.22
2022-08-17T23:51:09.269Z,7.10
2022-08-17T23:53:44.188Z,6.20
2022-08-17T23:56:12.379Z,6.70
2022-08-17T23:58:42.559Z,6.35
